createdAt,value
2023-01-25T05:25:39.867Z,57.05
2023-01-25T05:28:08.902Z,61.85
2023-01-25T05:30:56.248Z,57.28
2023-01-25T05:33:27.679Z,58.95
2023-01-25T05:35:56.214Z,70.93
2023-01-25T05:38:25.230Z,78.82
2023-01-25T05:40:58.863Z,59.83
2023-01-25T05:43:26.499Z,69.50
2023-01-25T05:45:54.176Z,65.53
2023-01-25T05:48:21.606Z,70.45
2023-01-25T05:50:49.095Z,74.30
2023-01-25T05:53:27.095Z,84.53
2023-01-25T05:55:55.150Z,75.50
2023-01-25T06:00:50.296Z,75.50
2023-01-25T06:03:32.485Z,75.68
2023-01-25T06:06:02.994Z,70.80
2023-01-25T06:08:32.139Z,66.32
2023-01-25T06:10:59.512Z,76.53
2023-01-25T06:13:28.994Z,80.78
2023-01-25T06:15:57.694Z,114.82
2023-01-25T06:18:44.267Z,81.63
2023-01-25T06:21:30.570Z,70.63
2023-01-25T06:23:57.925Z,77.28
2023-01-25T06:26:25.225Z,80.13
2023-01-25T06:28:53.473Z,78.95
2023-01-25T06:31:21.042Z,89.93
2023-01-25T06:33:50.981Z,92.63
2023-01-25T06:36:22.429Z,96.32
2023-01-25T06:38:52.423Z,102.70
2023-01-25T06:41:20.198Z,108.63
2023-01-25T06:43:50.603Z,118.32
2023-01-25T06:46:19.503Z,107.72
2023-01-25T06:48:46.929Z,114.63
2023-01-25T06:51:16.041Z,79.13
2023-01-25T06:53:49.068Z,84.20
2023-01-25T06:56:22.690Z,95.07
2023-01-25T06:58:50.650Z,89.78
2023-01-25T07:01:30.355Z,88.97
2023-01-25T07:03:59.837Z,84.68
2023-01-25T07:06:34.149Z,70.65
2023-01-25T07:09:11.148Z,72.43
2023-01-25T07:11:39.015Z,72.20
2023-01-25T07:14:06.866Z,78.25
2023-01-25T07:16:37.225Z,85.07
2023-01-25T07:19:06.876Z,75.00
2023-01-25T07:21:34.452Z,71.97
2023-01-25T07:24:04.054Z,71.10
2023-01-25T07:26:32.327Z,67.70
2023-01-25T07:29:00.043Z,64.25
2023-01-25T07:31:28.755Z,71.20
2023-01-25T07:33:58.851Z,83.75
2023-01-25T07:36:26.638Z,74.00
2023-01-25T07:38:55.793Z,70.10
2023-01-25T07:41:25.122Z,66.55
2023-01-25T07:43:53.279Z,64.70
2023-01-25T07:46:39.998Z,55.53
2023-01-25T07:49:07.408Z,51.60
2023-01-25T07:51:34.879Z,46.70
2023-01-25T07:54:05.057Z,49.42
2023-01-25T07:56:38.447Z,46.50
2023-01-25T07:59:08.356Z,58.70
2023-01-25T08:01:36.961Z,57.88
2023-01-25T08:04:05.113Z,53.95
2023-01-25T08:06:38.862Z,60.05
2023-01-25T08:09:14.074Z,52.00
2023-01-25T08:11:42.517Z,46.03
2023-01-25T08:14:11.320Z,50.65
2023-01-25T08:16:38.786Z,54.58
2023-01-25T08:19:06.412Z,54.03
2023-01-25T08:21:35.257Z,55.60
2023-01-25T08:24:07.034Z,47.88
2023-01-25T08:26:36.541Z,44.78
2023-01-25T08:29:05.626Z,48.22
2023-01-25T08:31:36.108Z,50.53
2023-01-25T08:34:04.578Z,51.97
2023-01-25T08:36:31.905Z,58.70
2023-01-25T08:39:03.848Z,69.07
2023-01-25T08:41:33.815Z,45.95
2023-01-25T08:44:01.885Z,51.60
2023-01-25T08:46:33.404Z,48.10
2023-01-25T08:49:02.649Z,47.05
2023-01-25T08:51:32.631Z,44.55
2023-01-25T08:54:08.589Z,41.42
2023-01-25T08:56:42.629Z,44.20
2023-01-25T08:59:14.080Z,46.53
2023-01-25T09:01:41.867Z,54.95
2023-01-25T09:04:09.404Z,52.78
2023-01-25T09:06:36.993Z,45.30
2023-01-25T09:09:04.839Z,41.33
2023-01-25T09:11:36.940Z,60.53
2023-01-25T09:14:05.388Z,47.05
2023-01-25T09:16:32.740Z,46.20
2023-01-25T09:19:03.738Z,48.10
2023-01-25T09:21:32.622Z,46.50
2023-01-25T09:24:06.611Z,44.38
2023-01-25T09:26:43.030Z,38.75
2023-01-25T09:31:43.535Z,51.92
2023-01-25T09:34:29.343Z,44.88
2023-01-25T09:36:56.648Z,41.78
2023-01-25T09:39:24.145Z,41.80
2023-01-25T09:42:15.077Z,43.60
2023-01-25T09:45:03.735Z,40.30
2023-01-25T09:48:05.078Z,43.35
2023-01-25T09:50:34.010Z,46.03
2023-01-25T09:53:36.954Z,41.83
2023-01-25T09:56:26.828Z,43.80
2023-01-25T09:59:07.704Z,52.83
2023-01-25T10:01:54.892Z,48.00
2023-01-25T10:04:28.699Z,56.22
2023-01-25T10:07:22.560Z,51.03
2023-01-25T10:10:13.938Z,44.17
2023-01-25T10:12:41.321Z,60.83
2023-01-25T10:15:23.600Z,53.85
2023-01-25T10:18:21.920Z,59.95
2023-01-25T10:23:51.803Z,51.35
2023-01-25T10:26:28.036Z,57.65
2023-01-25T10:29:13.011Z,58.47
2023-01-25T10:31:49.043Z,59.05
2023-01-25T10:34:26.772Z,75.90
2023-01-25T10:36:58.122Z,74.13
2023-01-25T10:39:25.619Z,50.30
2023-01-25T10:42:12.401Z,47.72
2023-01-25T10:44:39.791Z,52.60
2023-01-25T10:47:20.426Z,44.88
2023-01-25T10:49:58.908Z,39.88
2023-01-25T10:55:26.137Z,47.13
2023-01-25T10:57:59.737Z,45.72
2023-01-25T11:00:38.497Z,41.72
2023-01-25T11:03:19.302Z,51.05
2023-01-25T11:05:56.359Z,49.35
2023-01-25T11:08:30.801Z,43.92
2023-01-25T11:10:59.579Z,40.45
2023-01-25T11:13:29.995Z,41.95
2023-01-25T11:16:01.556Z,50.75
2023-01-25T11:18:33.859Z,48.75
2023-01-25T11:21:29.555Z,52.00
2023-01-25T11:24:11.773Z,47.63
2023-01-25T11:26:41.274Z,45.85
2023-01-25T11:29:16.001Z,46.28
2023-01-25T11:31:49.228Z,40.42
2023-01-25T11:34:21.178Z,41.15
2023-01-25T11:37:24.974Z,43.88
2023-01-25T11:40:33.552Z,41.03
2023-01-25T11:43:25.044Z,38.80
2023-01-25T11:46:21.023Z,55.58
2023-01-25T11:49:28.975Z,44.70
2023-01-25T11:52:57.923Z,41.08
2023-01-25T11:55:52.068Z,41.72
2023-01-25T11:58:55.800Z,36.20
2023-01-25T12:01:37.466Z,44.05
2023-01-25T12:04:41.591Z,157.57
2023-01-25T12:07:25.925Z,47.10
2023-01-25T12:10:20.610Z,47.05
2023-01-25T12:12:56.506Z,47.58
2023-01-25T12:16:20.208Z,52.95
2023-01-25T12:19:11.081Z,49.03
2023-01-25T12:22:02.875Z,50.25
2023-01-25T12:25:03.832Z,48.10
2023-01-25T12:28:10.540Z,54.00
2023-01-25T12:31:24.295Z,51.90
2023-01-25T12:34:03.820Z,55.78
2023-01-25T12:36:43.504Z,54.63
2023-01-25T12:39:40.141Z,69.95
2023-01-25T12:42:21.184Z,63.10
2023-01-25T12:45:20.991Z,55.35
2023-01-25T12:47:53.954Z,51.42
2023-01-25T12:50:46.945Z,44.60
2023-01-25T12:53:24.422Z,47.75
2023-01-25T12:55:54.384Z,55.70
2023-01-25T12:58:38.580Z,56.90
2023-01-25T13:01:32.114Z,55.10
2023-01-25T13:04:35.617Z,54.75
2023-01-25T13:07:28.108Z,51.13
2023-01-25T13:10:27.160Z,46.22
2023-01-25T13:13:04.132Z,58.17
2023-01-25T13:15:50.047Z,49.47
2023-01-25T13:18:30.118Z,50.88
2023-01-25T13:21:08.333Z,73.40
2023-01-25T13:23:35.693Z,50.47
2023-01-25T13:26:21.165Z,50.83
2023-01-25T13:28:52.103Z,51.50
2023-01-25T13:31:51.555Z,51.65
2023-01-25T13:34:35.647Z,63.05
2023-01-25T13:37:17.913Z,67.65
2023-01-25T13:39:51.317Z,75.22
2023-01-25T13:42:24.125Z,52.50
2023-01-25T13:45:04.794Z,54.30
2023-01-25T13:47:40.417Z,60.03
2023-01-25T13:50:29.323Z,57.55
2023-01-25T13:53:06.135Z,56.63
2023-01-25T13:55:43.683Z,61.22
2023-01-25T13:58:36.232Z,57.60
2023-01-25T14:01:13.377Z,65.35
2023-01-25T14:04:11.875Z,72.35
2023-01-25T14:06:41.121Z,95.50
2023-01-25T14:09:20.785Z,90.47
2023-01-25T14:12:03.444Z,92.70
2023-01-25T14:14:34.130Z,85.47
2023-01-25T14:17:16.888Z,75.35
2023-01-25T14:19:54.498Z,61.30
2023-01-25T14:22:29.155Z,80.70
2023-01-25T14:25:17.559Z,63.88
2023-01-25T14:30:21.983Z,86.53
2023-01-25T14:32:52.903Z,108.80
2023-01-25T14:35:54.630Z,88.80
2023-01-25T14:38:34.855Z,75.85
2023-01-25T14:41:08.297Z,66.50
2023-01-25T14:43:37.917Z,65.68
2023-01-25T14:46:23.458Z,38.63
2023-01-25T14:48:52.903Z,54.10
2023-01-25T14:51:30.707Z,53.40
2023-01-25T14:54:12.912Z,51.10
2023-01-25T14:56:45.382Z,48.15
2023-01-25T14:59:43.298Z,44.85
2023-01-25T15:02:39.420Z,45.97
2023-01-25T15:05:21.125Z,43.45
2023-01-25T15:07:50.940Z,42.42
2023-01-25T15:10:28.384Z,44.40
2023-01-25T15:13:15.252Z,43.55
2023-01-25T15:16:02.158Z,35.25
2023-01-25T15:18:51.254Z,33.25
2023-01-25T15:21:26.971Z,31.70
2023-01-25T15:23:57.012Z,42.20
2023-01-25T15:26:30.851Z,40.97
2023-01-25T15:29:02.048Z,51.88
2023-01-25T15:31:36.550Z,40.00
2023-01-25T15:34:04.963Z,53.13
2023-01-25T15:36:33.699Z,62.67
2023-01-25T15:39:01.549Z,36.75
2023-01-25T15:41:28.919Z,47.95
2023-01-25T15:43:56.346Z,35.60
2023-01-25T15:46:30.460Z,48.33
2023-01-25T15:48:57.934Z,46.38
2023-01-25T15:51:26.341Z,32.85
2023-01-25T15:53:53.651Z,38.78
2023-01-25T15:56:56.105Z,49.78
2023-01-25T15:59:24.043Z,47.25
2023-01-25T16:01:51.505Z,36.40
2023-01-25T16:04:18.833Z,32.05
2023-01-25T16:06:51.166Z,37.60
2023-01-25T16:09:24.847Z,37.83
2023-01-25T16:11:55.854Z,33.63
2023-01-25T16:14:29.099Z,46.30
2023-01-25T16:17:01.471Z,34.17
2023-01-25T16:19:30.016Z,41.85
2023-01-25T16:21:58.085Z,43.08
2023-01-25T16:24:25.537Z,45.20
2023-01-25T16:26:58.707Z,51.50
2023-01-25T16:29:27.532Z,39.67
2023-01-25T16:31:55.724Z,35.10
2023-01-25T16:34:23.425Z,26.38
2023-01-25T16:36:51.010Z,31.00
2023-01-25T16:39:21.406Z,30.53
2023-01-25T16:41:49.479Z,25.25
2023-01-25T16:44:17.491Z,21.65
2023-01-25T16:46:45.403Z,39.80
2023-01-25T16:49:22.250Z,22.60
2023-01-25T16:51:50.479Z,20.80
2023-01-25T16:54:19.926Z,23.35
2023-01-25T16:56:49.115Z,25.85
2023-01-25T16:59:18.318Z,25.17
2023-01-25T17:01:46.568Z,24.05
2023-01-25T17:04:15.351Z,26.92
2023-01-25T17:06:49.391Z,21.25
2023-01-25T17:09:24.065Z,21.40
2023-01-25T17:11:55.576Z,22.05
2023-01-25T17:14:23.357Z,24.05
2023-01-25T17:16:53.711Z,22.90
2023-01-25T17:19:21.652Z,25.27
2023-01-25T17:21:49.312Z,26.73
2023-01-25T17:24:20.998Z,25.40
2023-01-25T17:26:48.805Z,35.75
2023-01-25T17:29:48.843Z,28.27
2023-01-25T17:32:16.189Z,28.52
2023-01-25T17:34:43.512Z,73.82
2023-01-25T17:37:10.849Z,60.10
2023-01-25T17:39:38.246Z,37.65
2023-01-25T17:42:06.948Z,32.58
2023-01-25T17:44:34.362Z,29.58
2023-01-25T17:47:01.838Z,25.75
2023-01-25T17:49:30.592Z,25.15
2023-01-25T17:54:25.106Z,22.58
2023-01-25T17:56:54.065Z,25.27
2023-01-25T17:59:21.702Z,29.85
2023-01-25T18:01:49.850Z,26.80
2023-01-25T18:04:17.995Z,26.48
2023-01-25T18:06:45.298Z,37.58
2023-01-25T18:09:12.809Z,25.25
2023-01-25T18:11:41.003Z,32.53
2023-01-25T18:14:15.055Z,35.67
2023-01-25T18:16:43.377Z,22.02
2023-01-25T18:19:11.725Z,20.48
2023-01-25T18:21:40.676Z,20.17
2023-01-25T18:24:32.242Z,20.15
2023-01-25T18:27:22.222Z,19.73
2023-01-25T18:29:55.191Z,20.67
2023-01-25T18:32:22.854Z,23.33
2023-01-25T18:34:50.433Z,20.08
2023-01-25T18:37:20.620Z,19.52
2023-01-25T18:39:53.994Z,24.45
2023-01-25T18:42:24.673Z,19.00
2023-01-25T18:44:52.649Z,18.77
2023-01-25T18:47:22.841Z,23.33
2023-01-25T18:49:52.453Z,37.22
2023-01-25T18:52:22.239Z,27.27
2023-01-25T18:54:50.029Z,23.42
2023-01-25T18:57:18.198Z,23.93
2023-01-25T18:59:45.606Z,22.05
2023-01-25T19:02:15.921Z,24.55
2023-01-25T19:04:43.582Z,23.38
2023-01-25T19:07:11.571Z,22.73
2023-01-25T19:09:38.889Z,24.30
2023-01-25T19:12:06.966Z,22.25
2023-01-25T19:14:34.337Z,26.58
2023-01-25T19:17:02.083Z,24.70
2023-01-25T19:19:32.355Z,37.63
2023-01-25T19:22:01.168Z,31.60
2023-01-25T19:24:28.879Z,24.45
2023-01-25T19:26:56.484Z,26.88
2023-01-25T19:29:23.763Z,31.05
2023-01-25T19:31:51.369Z,19.35
2023-01-25T19:34:19.149Z,16.80
2023-01-25T19:36:50.001Z,24.30
2023-01-25T19:39:18.144Z,20.52
2023-01-25T19:41:46.438Z,22.00
2023-01-25T19:44:15.026Z,19.13
2023-01-25T19:49:13.189Z,20.23
2023-01-25T19:51:45.677Z,19.30
2023-01-25T19:54:17.730Z,22.67
2023-01-25T19:56:48.569Z,20.33
2023-01-25T19:59:20.024Z,24.27
2023-01-25T20:01:48.470Z,20.08
2023-01-25T20:04:20.118Z,23.92
2023-01-25T20:06:49.432Z,36.55
2023-01-25T20:09:19.790Z,34.10
2023-01-25T20:11:47.558Z,28.05
2023-01-25T20:14:15.448Z,21.92
2023-01-25T20:16:43.090Z,20.13
2023-01-25T20:19:13.385Z,21.33
2023-01-25T20:21:41.108Z,20.05
2023-01-25T20:24:10.485Z,19.63
2023-01-25T20:26:42.498Z,23.35
2023-01-25T20:29:12.576Z,19.63
2023-01-25T20:31:47.445Z,23.13
2023-01-25T20:34:19.943Z,26.88
2023-01-25T20:36:49.109Z,22.50
2023-01-25T20:39:20.026Z,24.88
2023-01-25T20:41:48.186Z,23.33
2023-01-25T20:44:18.012Z,24.70
2023-01-25T20:46:46.041Z,27.00
2023-01-25T20:49:18.675Z,28.20
2023-01-25T20:51:47.452Z,36.28
2023-01-25T20:56:43.247Z,51.28
2023-01-25T20:59:11.105Z,28.67
2023-01-25T21:01:38.552Z,91.53
2023-01-25T21:04:09.652Z,49.83
2023-01-25T21:06:38.658Z,42.13
2023-01-25T21:09:06.570Z,64.38
2023-01-25T21:11:34.683Z,54.05
2023-01-25T21:14:02.183Z,29.35
2023-01-25T21:16:30.167Z,31.55
2023-01-25T21:19:05.518Z,37.67
2023-01-25T21:21:34.675Z,58.03
2023-01-25T21:24:04.782Z,71.15
2023-01-25T21:26:35.724Z,59.85
2023-01-25T21:29:04.744Z,70.25
2023-01-25T21:31:39.221Z,74.35
2023-01-25T21:34:06.837Z,77.50
2023-01-25T21:36:34.203Z,39.05
2023-01-25T21:39:02.414Z,46.10
2023-01-25T21:41:33.629Z,59.38
2023-01-25T21:44:20.807Z,71.90
2023-01-25T21:47:16.309Z,54.80
2023-01-25T21:49:54.190Z,47.50
2023-01-25T21:52:21.681Z,54.63
2023-01-25T21:54:49.137Z,53.28
2023-01-25T21:57:16.459Z,51.55
2023-01-25T21:59:44.000Z,55.80
2023-01-25T22:02:14.817Z,61.13
2023-01-25T22:04:42.312Z,61.35
2023-01-25T22:07:11.740Z,43.92
2023-01-25T22:09:39.143Z,57.17
2023-01-25T22:12:06.544Z,71.13
2023-01-25T22:14:34.848Z,64.25
2023-01-25T22:17:03.184Z,34.90
2023-01-25T22:19:30.791Z,55.80
2023-01-25T22:21:58.150Z,53.30
2023-01-25T22:24:25.529Z,51.72
2023-01-25T22:27:21.669Z,49.40
2023-01-25T22:29:48.954Z,39.40
2023-01-25T22:32:16.333Z,45.95
2023-01-25T22:34:43.641Z,63.28
2023-01-25T22:37:11.987Z,48.33
2023-01-25T22:39:39.441Z,58.35
2023-01-25T22:42:06.723Z,52.25
2023-01-25T22:44:34.005Z,55.17
2023-01-25T22:47:01.314Z,51.38
2023-01-25T22:49:28.692Z,42.03
2023-01-25T22:51:56.027Z,42.55
2023-01-25T22:54:23.363Z,38.80
2023-01-25T22:56:50.668Z,44.78
2023-01-25T22:59:19.362Z,37.83
2023-01-25T23:01:46.752Z,31.45
2023-01-25T23:04:14.136Z,31.55
2023-01-25T23:06:41.548Z,33.33
2023-01-25T23:09:09.811Z,38.35
2023-01-25T23:11:38.895Z,33.42
2023-01-25T23:14:31.306Z,35.03
2023-01-25T23:17:17.130Z,29.88
2023-01-25T23:19:44.952Z,28.90
2023-01-25T23:22:12.439Z,32.60
2023-01-25T23:24:39.750Z,28.48
2023-01-25T23:27:07.234Z,23.58
2023-01-25T23:29:34.631Z,26.60
2023-01-25T23:32:02.061Z,26.73
2023-01-25T23:34:34.730Z,38.03
2023-01-25T23:37:02.132Z,45.75
2023-01-25T23:39:29.508Z,41.67
2023-01-25T23:41:56.880Z,39.10
2023-01-25T23:44:24.396Z,43.50
2023-01-25T23:46:51.798Z,51.42
2023-01-25T23:49:19.161Z,40.42
2023-01-25T23:51:46.501Z,49.92
2023-01-25T23:54:14.078Z,49.83
2023-01-25T23:56:41.458Z,41.33
2023-01-25T23:59:08.839Z,33.38
